sensor_id;sensor_type;location;lat;lon;timestamp;temperature;humidity
53286;DHT22;39171;45.550;12.074;2023-04-28T00:00:10;16.70;71.40
53286;DHT22;39171;45.550;12.074;2023-04-28T00:06:11;16.70;71.50
53286;DHT22;39171;45.550;12.074;2023-04-28T00:12:13;16.70;71.60
53286;DHT22;39171;45.550;12.074;2023-04-28T00:18:14;16.70;71.60
53286;DHT22;39171;45.550;12.074;2023-04-28T00:24:16;16.70;71.70
53286;DHT22;39171;45.550;12.074;2023-04-28T00:30:24;16.70;71.90
53286;DHT22;39171;45.550;12.074;2023-04-28T00:36:26;16.70;72.00
53286;DHT22;39171;45.550;12.074;2023-04-28T00:42:32;16.70;72.10
53286;DHT22;39171;45.550;12.074;2023-04-28T00:48:33;16.70;72.10
53286;DHT22;39171;45.550;12.074;2023-04-28T00:54:35;16.60;72.30
53286;DHT22;39171;45.550;12.074;2023-04-28T01:00:37;16.60;72.40
53286;DHT22;39171;45.550;12.074;2023-04-28T01:06:39;16.70;72.60
53286;DHT22;39171;45.550;12.074;2023-04-28T01:12:41;16.60;72.70
53286;DHT22;39171;45.550;12.074;2023-04-28T01:18:44;16.60;72.80
53286;DHT22;39171;45.550;12.074;2023-04-28T01:24:47;16.60;72.90
53286;DHT22;39171;45.550;12.074;2023-04-28T01:30:49;16.60;73.00
53286;DHT22;39171;45.550;12.074;2023-04-28T01:36:50;16.60;73.10
53286;DHT22;39171;45.550;12.074;2023-04-28T01:42:52;16.60;73.30
53286;DHT22;39171;45.550;12.074;2023-04-28T01:48:53;16.60;73.40
53286;DHT22;39171;45.550;12.074;2023-04-28T01:54:54;16.50;73.50
53286;DHT22;39171;45.550;12.074;2023-04-28T02:00:56;16.50;73.60
53286;DHT22;39171;45.550;12.074;2023-04-28T02:06:58;16.50;73.80
53286;DHT22;39171;45.550;12.074;2023-04-28T02:13:01;16.50;73.70
53286;DHT22;39171;45.550;12.074;2023-04-28T02:19:02;16.50;73.80
53286;DHT22;39171;45.550;12.074;2023-04-28T02:25:03;16.50;73.90
53286;DHT22;39171;45.550;12.074;2023-04-28T02:31:08;16.50;74.00
53286;DHT22;39171;45.550;12.074;2023-04-28T02:37:10;16.50;74.00
53286;DHT22;39171;45.550;12.074;2023-04-28T02:43:11;16.50;74.10
53286;DHT22;39171;45.550;12.074;2023-04-28T02:49:12;16.40;74.20
53286;DHT22;39171;45.550;12.074;2023-04-28T02:55:14;16.40;74.20
53286;DHT22;39171;45.550;12.074;2023-04-28T03:01:25;16.40;74.30
53286;DHT22;39171;45.550;12.074;2023-04-28T03:07:26;16.40;74.40
53286;DHT22;39171;45.550;12.074;2023-04-28T03:13:28;16.40;74.50
53286;DHT22;39171;45.550;12.074;2023-04-28T03:19:30;16.40;74.50
53286;DHT22;39171;45.550;12.074;2023-04-28T03:25:33;16.40;74.60
53286;DHT22;39171;45.550;12.074;2023-04-28T03:31:36;16.40;74.70
53286;DHT22;39171;45.550;12.074;2023-04-28T03:37:37;16.40;74.90
53286;DHT22;39171;45.550;12.074;2023-04-28T03:43:40;16.30;74.90
53286;DHT22;39171;45.550;12.074;2023-04-28T03:50:01;16.40;75.00
53286;DHT22;39171;45.550;12.074;2023-04-28T03:56:03;16.30;74.90
53286;DHT22;39171;45.550;12.074;2023-04-28T04:02:05;16.30;75.00
53286;DHT22;39171;45.550;12.074;2023-04-28T04:08:06;16.40;75.10
53286;DHT22;39171;45.550;12.074;2023-04-28T04:14:07;16.30;75.10
53286;DHT22;39171;45.550;12.074;2023-04-28T04:20:09;16.30;75.20
53286;DHT22;39171;45.550;12.074;2023-04-28T04:26:11;16.30;75.20
53286;DHT22;39171;45.550;12.074;2023-04-28T04:32:13;16.30;75.40
53286;DHT22;39171;45.550;12.074;2023-04-28T04:38:16;16.30;75.40
53286;DHT22;39171;45.550;12.074;2023-04-28T04:44:17;16.30;75.40
53286;DHT22;39171;45.550;12.074;2023-04-28T04:50:21;16.20;75.50
53286;DHT22;39171;45.550;12.074;2023-04-28T04:56:22;16.30;75.60
53286;DHT22;39171;45.550;12.074;2023-04-28T05:02:23;16.20;75.50
53286;DHT22;39171;45.550;12.074;2023-04-28T05:08:26;16.30;75.90
53286;DHT22;39171;45.550;12.074;2023-04-28T05:14:27;16.20;75.80
53286;DHT22;39171;45.550;12.074;2023-04-28T05:20:29;16.30;75.80
53286;DHT22;39171;45.550;12.074;2023-04-28T05:26:30;16.30;75.70
53286;DHT22;39171;45.550;12.074;2023-04-28T05:32:38;16.30;75.80
53286;DHT22;39171;45.550;12.074;2023-04-28T05:38:40;16.20;75.90
53286;DHT22;39171;45.550;12.074;2023-04-28T05:44:42;16.20;76.00
53286;DHT22;39171;45.550;12.074;2023-04-28T05:50:46;16.20;76.00
53286;DHT22;39171;45.550;12.074;2023-04-28T05:56:47;16.20;76.00
53286;DHT22;39171;45.550;12.074;2023-04-28T06:02:53;16.20;76.00
53286;DHT22;39171;45.550;12.074;2023-04-28T06:08:58;16.20;76.00
53286;DHT22;39171;45.550;12.074;2023-04-28T06:15:00;16.20;76.00
53286;DHT22;39171;45.550;12.074;2023-04-28T06:21:02;16.20;76.10
53286;DHT22;39171;45.550;12.074;2023-04-28T06:27:03;16.20;76.00
53286;DHT22;39171;45.550;12.074;2023-04-28T06:33:04;16.20;76.20
53286;DHT22;39171;45.550;12.074;2023-04-28T06:39:05;16.20;76.20
53286;DHT22;39171;45.550;12.074;2023-04-28T06:45:08;16.20;76.30
53286;DHT22;39171;45.550;12.074;2023-04-28T06:51:11;16.20;76.40
53286;DHT22;39171;45.550;12.074;2023-04-28T06:57:13;16.30;76.20
53286;DHT22;39171;45.550;12.074;2023-04-28T07:03:15;16.20;76.20
53286;DHT22;39171;45.550;12.074;2023-04-28T07:09:16;16.30;76.20
53286;DHT22;39171;45.550;12.074;2023-04-28T07:15:17;16.20;76.00
53286;DHT22;39171;45.550;12.074;2023-04-28T07:21:18;16.30;75.90
53286;DHT22;39171;45.550;12.074;2023-04-28T07:27:21;16.30;76.00
53286;DHT22;39171;45.550;12.074;2023-04-28T07:33:23;16.30;76.10
53286;DHT22;39171;45.550;12.074;2023-04-28T07:39:24;16.30;76.30
53286;DHT22;39171;45.550;12.074;2023-04-28T07:45:31;16.30;75.80
53286;DHT22;39171;45.550;12.074;2023-04-28T07:51:32;16.40;75.80
53286;DHT22;39171;45.550;12.074;2023-04-28T07:57:34;16.40;75.70
53286;DHT22;39171;45.550;12.074;2023-04-28T08:03:35;16.40;75.50
53286;DHT22;39171;45.550;12.074;2023-04-28T08:09:36;16.40;75.20
53286;DHT22;39171;45.550;12.074;2023-04-28T08:15:38;16.50;75.20
53286;DHT22;39171;45.550;12.074;2023-04-28T08:21:39;16.40;75.00
53286;DHT22;39171;45.550;12.074;2023-04-28T08:27:40;16.50;74.80
53286;DHT22;39171;45.550;12.074;2023-04-28T08:33:42;16.50;75.00
53286;DHT22;39171;45.550;12.074;2023-04-28T08:39:48;16.50;74.90
53286;DHT22;39171;45.550;12.074;2023-04-28T08:45:49;16.50;74.60
53286;DHT22;39171;45.550;12.074;2023-04-28T08:51:58;16.50;74.70
53286;DHT22;39171;45.550;12.074;2023-04-28T08:57:59;16.50;74.50
53286;DHT22;39171;45.550;12.074;2023-04-28T09:04:05;16.50;74.40
53286;DHT22;39171;45.550;12.074;2023-04-28T09:10:20;16.50;74.30
53286;DHT22;39171;45.550;12.074;2023-04-28T09:16:21;16.60;74.30
53286;DHT22;39171;45.550;12.074;2023-04-28T09:22:26;16.60;73.80
53286;DHT22;39171;45.550;12.074;2023-04-28T09:28:28;16.60;73.80
53286;DHT22;39171;45.550;12.074;2023-04-28T09:34:41;16.60;73.60
53286;DHT22;39171;45.550;12.074;2023-04-28T09:46:51;16.70;73.60
53286;DHT22;39171;45.550;12.074;2023-04-28T09:52:55;16.70;72.90
53286;DHT22;39171;45.550;12.074;2023-04-28T09:58:57;16.70;72.80
53286;DHT22;39171;45.550;12.074;2023-04-28T10:04:59;16.70;72.10
53286;DHT22;39171;45.550;12.074;2023-04-28T10:11:00;16.70;71.80
53286;DHT22;39171;45.550;12.074;2023-04-28T10:17:02;16.70;71.20
53286;DHT22;39171;45.550;12.074;2023-04-28T10:23:16;16.80;70.90
53286;DHT22;39171;45.550;12.074;2023-04-28T10:29:24;16.80;70.30
53286;DHT22;39171;45.550;12.074;2023-04-28T10:41:36;16.80;69.60
53286;DHT22;39171;45.550;12.074;2023-04-28T11:00:25;16.90;68.80
53286;DHT22;39171;45.550;12.074;2023-04-28T11:06:26;17.00;68.20
53286;DHT22;39171;45.550;12.074;2023-04-28T11:12:28;17.00;67.60
53286;DHT22;39171;45.550;12.074;2023-04-28T11:24:58;17.00;66.30
53286;DHT22;39171;45.550;12.074;2023-04-28T11:37:38;17.10;64.90
53286;DHT22;39171;45.550;12.074;2023-04-28T11:43:40;17.20;64.10
53286;DHT22;39171;45.550;12.074;2023-04-28T11:50:01;17.20;63.70
53286;DHT22;39171;45.550;12.074;2023-04-28T11:56:05;17.30;62.90
53286;DHT22;39171;45.550;12.074;2023-04-28T12:02:23;17.30;62.70
53286;DHT22;39171;45.550;12.074;2023-04-28T12:08:27;17.30;62.10
53286;DHT22;39171;45.550;12.074;2023-04-28T12:14:28;17.30;61.40
53286;DHT22;39171;45.550;12.074;2023-04-28T12:20:34;17.40;60.90
53286;DHT22;39171;45.550;12.074;2023-04-28T12:26:36;17.40;60.50
53286;DHT22;39171;45.550;12.074;2023-04-28T12:33:02;17.40;59.70
53286;DHT22;39171;45.550;12.074;2023-04-28T12:39:11;17.50;59.10
53286;DHT22;39171;45.550;12.074;2023-04-28T12:45:12;17.60;58.70
53286;DHT22;39171;45.550;12.074;2023-04-28T12:51:16;17.70;58.30
53286;DHT22;39171;45.550;12.074;2023-04-28T12:57:18;17.70;57.40
53286;DHT22;39171;45.550;12.074;2023-04-28T13:03:19;17.80;56.80
53286;DHT22;39171;45.550;12.074;2023-04-28T13:09:21;17.90;55.80
53286;DHT22;39171;45.550;12.074;2023-04-28T13:15:22;18.00;55.90
53286;DHT22;39171;45.550;12.074;2023-04-28T13:21:23;18.00;55.60
53286;DHT22;39171;45.550;12.074;2023-04-28T13:27:26;18.10;55.40
53286;DHT22;39171;45.550;12.074;2023-04-28T13:33:30;18.10;54.90
53286;DHT22;39171;45.550;12.074;2023-04-28T13:39:32;18.10;55.10
53286;DHT22;39171;45.550;12.074;2023-04-28T13:45:33;18.10;55.20
53286;DHT22;39171;45.550;12.074;2023-04-28T13:51:34;18.20;55.20
53286;DHT22;39171;45.550;12.074;2023-04-28T13:57:36;18.30;55.00
53286;DHT22;39171;45.550;12.074;2023-04-28T14:03:37;18.30;54.80
53286;DHT22;39171;45.550;12.074;2023-04-28T14:09:40;18.40;54.60
53286;DHT22;39171;45.550;12.074;2023-04-28T14:15:41;18.40;54.30
53286;DHT22;39171;45.550;12.074;2023-04-28T14:21:42;18.40;53.90
53286;DHT22;39171;45.550;12.074;2023-04-28T14:27:44;18.40;53.60
53286;DHT22;39171;45.550;12.074;2023-04-28T14:33:45;18.40;53.50
53286;DHT22;39171;45.550;12.074;2023-04-28T14:39:47;18.50;53.50
53286;DHT22;39171;45.550;12.074;2023-04-28T14:45:48;18.40;53.20
53286;DHT22;39171;45.550;12.074;2023-04-28T14:51:50;18.40;53.10
53286;DHT22;39171;45.550;12.074;2023-04-28T14:57:51;18.40;53.30
53286;DHT22;39171;45.550;12.074;2023-04-28T15:03:52;18.30;53.20
53286;DHT22;39171;45.550;12.074;2023-04-28T15:09:54;18.40;53.30
53286;DHT22;39171;45.550;12.074;2023-04-28T15:15:55;18.30;53.10
53286;DHT22;39171;45.550;12.074;2023-04-28T15:21:57;18.30;53.10
53286;DHT22;39171;45.550;12.074;2023-04-28T15:27:58;18.30;53.20
53286;DHT22;39171;45.550;12.074;2023-04-28T15:34:00;18.30;53.20
53286;DHT22;39171;45.550;12.074;2023-04-28T15:40:02;18.30;53.40
53286;DHT22;39171;45.550;12.074;2023-04-28T15:46:04;18.20;53.60
53286;DHT22;39171;45.550;12.074;2023-04-28T15:52:08;18.20;53.80
53286;DHT22;39171;45.550;12.074;2023-04-28T15:58:09;18.20;53.90
53286;DHT22;39171;45.550;12.074;2023-04-28T16:04:11;18.20;54.00
53286;DHT22;39171;45.550;12.074;2023-04-28T16:10:13;18.20;54.00
53286;DHT22;39171;45.550;12.074;2023-04-28T16:16:14;18.20;54.10
53286;DHT22;39171;45.550;12.074;2023-04-28T16:22:15;18.20;54.30
53286;DHT22;39171;45.550;12.074;2023-04-28T16:28:16;18.20;54.40
53286;DHT22;39171;45.550;12.074;2023-04-28T16:34:18;18.10;54.60
53286;DHT22;39171;45.550;12.074;2023-04-28T16:40:19;18.10;54.70
53286;DHT22;39171;45.550;12.074;2023-04-28T16:46:23;18.10;54.90
53286;DHT22;39171;45.550;12.074;2023-04-28T16:52:25;18.10;54.90
53286;DHT22;39171;45.550;12.074;2023-04-28T16:58:26;18.00;54.90
53286;DHT22;39171;45.550;12.074;2023-04-28T17:04:27;18.00;55.00
53286;DHT22;39171;45.550;12.074;2023-04-28T17:10:28;18.00;55.10
53286;DHT22;39171;45.550;12.074;2023-04-28T17:16:30;18.00;55.50
53286;DHT22;39171;45.550;12.074;2023-04-28T17:22:32;18.00;55.90
53286;DHT22;39171;45.550;12.074;2023-04-28T17:28:35;17.90;56.20
53286;DHT22;39171;45.550;12.074;2023-04-28T17:34:36;17.90;56.50
53286;DHT22;39171;45.550;12.074;2023-04-28T17:40:37;17.90;56.60
53286;DHT22;39171;45.550;12.074;2023-04-28T17:46:39;17.80;56.90
53286;DHT22;39171;45.550;12.074;2023-04-28T17:52:41;17.80;57.20
53286;DHT22;39171;45.550;12.074;2023-04-28T17:58:42;17.80;57.50
53286;DHT22;39171;45.550;12.074;2023-04-28T18:04:44;17.80;57.80
53286;DHT22;39171;45.550;12.074;2023-04-28T18:10:46;17.80;58.10
53286;DHT22;39171;45.550;12.074;2023-04-28T18:16:47;17.70;58.30
53286;DHT22;39171;45.550;12.074;2023-04-28T18:22:48;17.70;58.50
53286;DHT22;39171;45.550;12.074;2023-04-28T18:28:49;17.70;58.70
53286;DHT22;39171;45.550;12.074;2023-04-28T18:34:50;17.70;58.80
53286;DHT22;39171;45.550;12.074;2023-04-28T18:40:52;17.70;58.90
53286;DHT22;39171;45.550;12.074;2023-04-28T18:46:53;17.70;59.00
53286;DHT22;39171;45.550;12.074;2023-04-28T18:52:54;17.70;59.10
53286;DHT22;39171;45.550;12.074;2023-04-28T18:58:56;17.70;59.30
53286;DHT22;39171;45.550;12.074;2023-04-28T19:04:58;17.70;59.40
53286;DHT22;39171;45.550;12.074;2023-04-28T19:11:00;17.60;59.50
53286;DHT22;39171;45.550;12.074;2023-04-28T19:17:02;17.60;59.70
53286;DHT22;39171;45.550;12.074;2023-04-28T19:23:03;17.60;59.90
53286;DHT22;39171;45.550;12.074;2023-04-28T19:29:07;17.60;60.10
53286;DHT22;39171;45.550;12.074;2023-04-28T19:35:09;17.60;60.40
53286;DHT22;39171;45.550;12.074;2023-04-28T19:41:10;17.60;60.70
53286;DHT22;39171;45.550;12.074;2023-04-28T19:47:11;17.60;61.10
53286;DHT22;39171;45.550;12.074;2023-04-28T19:53:13;17.60;61.40
53286;DHT22;39171;45.550;12.074;2023-04-28T19:59:14;17.50;61.60
53286;DHT22;39171;45.550;12.074;2023-04-28T20:05:17;17.50;62.10
53286;DHT22;39171;45.550;12.074;2023-04-28T20:11:20;17.50;62.50
53286;DHT22;39171;45.550;12.074;2023-04-28T20:17:25;17.50;62.60
53286;DHT22;39171;45.550;12.074;2023-04-28T20:23:26;17.50;62.80
53286;DHT22;39171;45.550;12.074;2023-04-28T20:29:29;17.50;63.20
53286;DHT22;39171;45.550;12.074;2023-04-28T20:35:39;17.50;63.60
53286;DHT22;39171;45.550;12.074;2023-04-28T20:41:43;17.50;64.00
53286;DHT22;39171;45.550;12.074;2023-04-28T20:47:44;17.50;64.30
53286;DHT22;39171;45.550;12.074;2023-04-28T20:53:45;17.50;64.50
53286;DHT22;39171;45.550;12.074;2023-04-28T20:59:48;17.50;64.90
53286;DHT22;39171;45.550;12.074;2023-04-28T21:05:49;17.50;65.20
53286;DHT22;39171;45.550;12.074;2023-04-28T21:11:50;17.50;65.50
53286;DHT22;39171;45.550;12.074;2023-04-28T21:17:51;17.50;66.10
53286;DHT22;39171;45.550;12.074;2023-04-28T21:23:54;17.50;66.40
53286;DHT22;39171;45.550;12.074;2023-04-28T21:29:55;17.40;66.70
53286;DHT22;39171;45.550;12.074;2023-04-28T21:35:57;17.50;67.10
53286;DHT22;39171;45.550;12.074;2023-04-28T21:41:58;17.40;67.40
53286;DHT22;39171;45.550;12.074;2023-04-28T21:47:59;17.40;67.80
53286;DHT22;39171;45.550;12.074;2023-04-28T21:54:01;17.40;68.00
53286;DHT22;39171;45.550;12.074;2023-04-28T22:00:03;17.40;68.20
53286;DHT22;39171;45.550;12.074;2023-04-28T22:06:14;17.40;68.50
53286;DHT22;39171;45.550;12.074;2023-04-28T22:12:15;17.40;68.80
53286;DHT22;39171;45.550;12.074;2023-04-28T22:18:17;17.40;68.90
53286;DHT22;39171;45.550;12.074;2023-04-28T22:24:18;17.40;69.10
53286;DHT22;39171;45.550;12.074;2023-04-28T22:30:19;17.40;69.40
53286;DHT22;39171;45.550;12.074;2023-04-28T22:36:20;17.40;69.50
53286;DHT22;39171;45.550;12.074;2023-04-28T22:42:22;17.40;69.70
53286;DHT22;39171;45.550;12.074;2023-04-28T22:48:23;17.30;70.00
53286;DHT22;39171;45.550;12.074;2023-04-28T22:54:25;17.40;70.10
53286;DHT22;39171;45.550;12.074;2023-04-28T23:00:26;17.40;70.20
53286;DHT22;39171;45.550;12.074;2023-04-28T23:06:27;17.30;70.50
53286;DHT22;39171;45.550;12.074;2023-04-28T23:12:29;17.30;70.70
53286;DHT22;39171;45.550;12.074;2023-04-28T23:18:31;17.30;70.90
53286;DHT22;39171;45.550;12.074;2023-04-28T23:24:33;17.30;71.00
53286;DHT22;39171;45.550;12.074;2023-04-28T23:30:34;17.30;71.20
53286;DHT22;39171;45.550;12.074;2023-04-28T23:36:36;17.30;71.50
53286;DHT22;39171;45.550;12.074;2023-04-28T23:42:37;17.30;71.60
53286;DHT22;39171;45.550;12.074;2023-04-28T23:48:39;17.30;71.80
53286;DHT22;39171;45.550;12.074;2023-04-28T23:54:40;17.30;71.90
